createdAt,value
2023-01-13T00:01:11.023Z,99962.09
2023-01-13T00:03:38.161Z,99951.31
2023-01-13T00:06:06.373Z,99957.03
2023-01-13T00:08:33.439Z,99960.78
2023-01-13T00:11:00.139Z,99959.19
2023-01-13T00:13:26.802Z,99958.56
2023-01-13T00:16:01.452Z,99950.78
2023-01-13T00:18:28.639Z,99956.97
2023-01-13T00:21:06.763Z,99932.66
2023-01-13T00:23:35.039Z,99940.41
2023-01-13T00:26:05.568Z,99934.06
2023-01-13T00:28:32.534Z,99930.88
2023-01-13T00:31:10.913Z,99942.03
2023-01-13T00:33:38.015Z,99936.25
2023-01-13T00:36:07.234Z,99952.59
2023-01-13T00:38:35.691Z,99958.38
2023-01-13T00:41:05.397Z,99961.59
2023-01-13T00:43:34.103Z,99976.13
2023-01-13T00:46:01.441Z,99944.09
2023-01-13T00:48:30.636Z,99943.47
2023-01-13T00:51:06.056Z,99954.63
2023-01-13T00:53:38.618Z,99959.97
2023-01-13T00:56:14.521Z,99949.34
2023-01-13T00:58:41.723Z,99939.38
2023-01-13T01:01:12.555Z,99939.91
2023-01-13T01:03:39.450Z,99939.66
2023-01-13T01:06:13.900Z,99936.19
2023-01-13T01:08:41.261Z,99926.19
2023-01-13T01:11:10.687Z,99940.66
2023-01-13T01:13:38.038Z,99944.75
2023-01-13T01:16:09.843Z,99956.47
2023-01-13T01:18:39.716Z,99962.97
2023-01-13T01:21:07.829Z,99958.16
2023-01-13T01:23:36.261Z,99964.06
2023-01-13T01:26:05.108Z,99961.00
2023-01-13T01:28:32.315Z,99962.53
2023-01-13T01:30:59.848Z,99971.78
2023-01-13T01:33:26.868Z,99971.31
2023-01-13T01:35:54.689Z,99975.09
2023-01-13T01:38:23.372Z,99978.22
2023-01-13T01:40:50.125Z,99989.63
2023-01-13T01:43:39.680Z,99987.66
2023-01-13T01:46:06.365Z,99983.94
2023-01-13T01:48:38.399Z,99983.38
2023-01-13T01:51:08.913Z,99990.19
2023-01-13T01:53:35.878Z,100001.16
2023-01-13T01:56:03.493Z,99996.94
2023-01-13T01:58:35.555Z,99999.38
2023-01-13T02:01:02.433Z,99993.06
2023-01-13T02:03:30.320Z,99989.03
2023-01-13T02:05:56.952Z,99990.53
2023-01-13T02:08:24.229Z,99996.41
2023-01-13T02:10:54.122Z,99984.63
2023-01-13T02:13:22.751Z,99980.16
2023-01-13T02:16:15.461Z,99988.44
2023-01-13T02:19:23.487Z,99973.28
2023-01-13T02:22:22.086Z,99977.03
2023-01-13T02:25:09.951Z,99975.59
2023-01-13T02:27:51.728Z,99971.09
2023-01-13T02:30:59.662Z,99974.88
2023-01-13T02:33:34.436Z,99970.03
2023-01-13T02:36:25.040Z,99961.66
2023-01-13T02:38:58.396Z,99965.38
2023-01-13T02:41:51.101Z,99973.31
2023-01-13T02:44:25.122Z,99980.91
2023-01-13T02:47:06.605Z,99975.91
2023-01-13T02:49:42.618Z,99979.75
2023-01-13T02:52:14.055Z,99975.03
2023-01-13T02:54:45.569Z,99966.91
2023-01-13T02:57:15.417Z,99964.69
2023-01-13T02:59:42.925Z,99959.50
2023-01-13T03:02:15.017Z,99958.06
2023-01-13T03:04:50.701Z,99959.41
2023-01-13T03:07:29.627Z,99965.09
2023-01-13T03:10:27.333Z,99960.28
2023-01-13T03:13:29.561Z,99965.81
2023-01-13T03:16:10.467Z,99961.78
2023-01-13T03:19:02.863Z,99959.19
2023-01-13T03:21:46.060Z,99946.44
2023-01-13T03:24:37.020Z,99942.44
2023-01-13T03:27:31.438Z,99943.22
2023-01-13T03:30:14.184Z,99941.78
2023-01-13T03:32:44.345Z,99931.44
2023-01-13T03:35:22.097Z,99943.41
2023-01-13T03:37:59.779Z,99942.59
2023-01-13T03:40:33.232Z,99931.09
2023-01-13T03:43:26.906Z,99945.81
2023-01-13T03:46:08.605Z,99934.84
2023-01-13T03:48:41.005Z,99920.31
2023-01-13T03:51:13.273Z,99927.25
2023-01-13T03:53:48.241Z,99926.47
2023-01-13T03:56:54.872Z,99927.41
2023-01-13T03:59:25.304Z,99927.25
2023-01-13T04:02:01.751Z,99922.44
2023-01-13T04:04:43.871Z,99919.84
2023-01-13T04:07:20.730Z,99916.47
2023-01-13T04:09:52.712Z,99910.50
2023-01-13T04:12:28.646Z,99913.25
2023-01-13T04:14:56.423Z,99921.19
2023-01-13T04:17:24.678Z,99919.22
2023-01-13T04:19:51.232Z,99923.75
2023-01-13T04:22:17.899Z,99911.03
2023-01-13T04:24:44.469Z,99916.19
2023-01-13T04:27:11.093Z,99923.28
2023-01-13T04:29:37.889Z,99922.03
2023-01-13T04:32:04.620Z,99923.81
2023-01-13T04:34:31.425Z,99924.00
2023-01-13T04:36:58.124Z,99913.03
2023-01-13T04:39:24.750Z,99908.22
2023-01-13T04:42:01.398Z,99902.06
2023-01-13T04:44:28.808Z,99900.44
2023-01-13T04:46:55.581Z,99893.50
2023-01-13T04:49:22.225Z,99899.81
2023-01-13T04:51:48.893Z,99903.41
2023-01-13T04:54:16.313Z,99899.81
2023-01-13T04:56:43.380Z,99890.31
2023-01-13T04:59:13.907Z,99896.91
2023-01-13T05:01:40.982Z,99904.94
2023-01-13T05:04:08.475Z,99911.38
2023-01-13T05:06:35.119Z,99907.44
2023-01-13T05:09:03.088Z,99906.13
2023-01-13T05:11:48.042Z,99904.00
2023-01-13T05:14:33.267Z,99903.00
2023-01-13T05:17:03.692Z,99910.75
2023-01-13T05:19:39.209Z,99907.66
2023-01-13T05:22:28.792Z,99910.91
2023-01-13T05:25:14.046Z,99915.88
2023-01-13T05:27:40.574Z,99914.09
2023-01-13T05:30:07.946Z,99907.84
2023-01-13T05:32:34.653Z,99917.28
2023-01-13T05:35:01.292Z,99926.69
2023-01-13T05:37:27.983Z,99920.16
2023-01-13T05:40:13.390Z,99915.50
2023-01-13T05:42:58.762Z,99910.03
2023-01-13T05:45:25.325Z,99916.66
2023-01-13T05:47:51.963Z,99912.00
2023-01-13T05:50:18.904Z,99921.09
2023-01-13T05:52:45.711Z,99907.72
2023-01-13T05:55:12.603Z,99916.44
2023-01-13T05:57:39.185Z,99920.97
2023-01-13T06:00:06.347Z,99928.91
2023-01-13T06:02:33.148Z,99920.50
2023-01-13T06:04:59.734Z,99915.50
2023-01-13T06:07:26.368Z,99918.44
2023-01-13T06:09:52.892Z,99919.75
2023-01-13T06:12:19.645Z,99915.56
2023-01-13T06:14:46.177Z,99912.34
2023-01-13T06:17:14.800Z,99903.63
2023-01-13T06:19:41.908Z,99916.72
2023-01-13T06:22:13.668Z,99909.94
2023-01-13T06:24:40.355Z,99919.31
2023-01-13T06:27:08.857Z,99918.16
2023-01-13T06:29:35.970Z,99924.06
2023-01-13T06:32:08.442Z,99926.13
2023-01-13T06:34:35.788Z,99927.59
2023-01-13T06:37:03.508Z,99930.97
2023-01-13T06:39:31.642Z,99938.22
2023-01-13T06:42:17.730Z,99937.84
2023-01-13T06:44:45.328Z,99934.94
2023-01-13T06:47:12.141Z,99932.16
2023-01-13T06:49:38.778Z,99932.66
2023-01-13T06:52:05.795Z,99947.63
2023-01-13T06:54:32.435Z,99934.53
2023-01-13T06:56:58.981Z,99949.53
2023-01-13T06:59:25.889Z,99940.84
2023-01-13T07:01:52.676Z,99953.38
2023-01-13T07:04:19.542Z,99955.00
2023-01-13T07:06:46.067Z,99960.19
2023-01-13T07:09:12.822Z,99951.78
2023-01-13T07:11:39.436Z,99944.03
2023-01-13T07:14:24.574Z,99956.78
2023-01-13T07:16:52.378Z,99956.16
2023-01-13T07:19:23.715Z,99959.53
2023-01-13T07:21:52.379Z,99960.34
2023-01-13T07:24:19.898Z,99960.34
2023-01-13T07:26:46.512Z,99956.97
2023-01-13T07:29:13.266Z,99955.19
2023-01-13T07:31:40.125Z,99953.38
2023-01-13T07:34:07.405Z,99938.06
2023-01-13T07:36:34.256Z,99952.59
2023-01-13T07:39:01.279Z,99952.41
2023-01-13T07:41:46.453Z,99954.38
2023-01-13T07:44:13.134Z,99960.34
2023-01-13T07:46:40.384Z,99949.22
2023-01-13T07:49:08.320Z,99950.66
2023-01-13T07:51:39.140Z,99963.72
2023-01-13T07:54:06.471Z,99971.31
2023-01-13T07:56:33.061Z,99965.16
2023-01-13T07:59:00.963Z,99963.38
2023-01-13T08:01:28.162Z,99968.22
2023-01-13T08:03:57.696Z,99972.41
2023-01-13T08:06:25.180Z,99980.97
2023-01-13T08:08:51.908Z,99975.97
2023-01-13T08:11:18.933Z,99969.81
2023-01-13T08:13:45.643Z,99973.06
2023-01-13T08:16:15.019Z,99967.69
2023-01-13T08:18:42.373Z,99978.03
2023-01-13T08:21:14.236Z,99985.59
2023-01-13T08:23:44.900Z,99991.59
2023-01-13T08:26:17.347Z,99981.25
2023-01-13T08:28:45.025Z,99980.44
2023-01-13T08:31:16.490Z,99985.59
2023-01-13T08:33:43.619Z,99984.81
2023-01-13T08:36:12.540Z,99971.09
2023-01-13T08:38:40.473Z,99989.81
2023-01-13T08:41:16.029Z,99986.25
2023-01-13T08:43:42.867Z,99988.50
2023-01-13T08:46:09.727Z,99979.78
2023-01-13T08:48:36.355Z,99987.34
2023-01-13T08:51:08.911Z,99993.13
2023-01-13T08:53:35.771Z,99997.97
2023-01-13T08:56:02.588Z,99991.81
2023-01-13T08:58:29.508Z,99984.41
2023-01-13T09:00:56.204Z,99988.59
2023-01-13T09:03:23.150Z,99995.03
2023-01-13T09:05:49.717Z,100003.59
2023-01-13T09:08:16.459Z,100002.25
2023-01-13T09:10:43.255Z,99993.53
2023-01-13T09:13:13.647Z,99995.94
2023-01-13T09:15:43.937Z,99999.19
2023-01-13T09:18:11.644Z,99999.63
2023-01-13T09:20:38.666Z,99995.91
2023-01-13T09:23:08.812Z,99986.00
2023-01-13T09:25:39.725Z,99995.66
2023-01-13T09:28:08.220Z,99998.53
2023-01-13T09:30:36.287Z,100014.81
2023-01-13T09:33:22.996Z,100008.50
2023-01-13T09:35:49.710Z,100005.09
2023-01-13T09:38:16.456Z,100025.97
2023-01-13T09:40:43.977Z,100015.28
2023-01-13T09:43:42.210Z,100018.69
2023-01-13T09:46:38.128Z,100024.66
2023-01-13T09:49:05.288Z,100025.81
2023-01-13T09:51:40.954Z,100027.59
2023-01-13T09:54:26.014Z,100037.13
2023-01-13T09:56:53.158Z,100033.75
2023-01-13T09:59:20.185Z,100046.06
2023-01-13T10:01:59.553Z,100042.66
2023-01-13T10:04:26.965Z,100038.63
2023-01-13T10:06:58.289Z,100043.66
2023-01-13T10:09:42.711Z,100046.22
2023-01-13T10:12:37.674Z,100044.09
2023-01-13T10:15:04.853Z,100040.69
2023-01-13T10:17:43.214Z,100054.44
2023-01-13T10:20:26.697Z,100068.00
2023-01-13T10:23:20.136Z,100079.16
2023-01-13T10:26:08.107Z,100079.97
2023-01-13T10:28:34.772Z,100081.09
2023-01-13T10:31:05.290Z,100071.22
2023-01-13T10:33:31.986Z,100079.78
2023-01-13T10:36:21.651Z,100092.38
2023-01-13T10:38:50.337Z,100085.13
2023-01-13T10:41:19.656Z,100071.38
2023-01-13T10:43:59.184Z,100090.66
2023-01-13T10:46:27.350Z,100096.34
2023-01-13T10:48:57.929Z,100091.34
2023-01-13T10:51:31.701Z,100091.16
2023-01-13T10:54:12.799Z,100090.13
2023-01-13T10:56:45.013Z,100099.31
2023-01-13T10:59:31.645Z,100090.59
2023-01-13T11:02:32.514Z,100086.22
2023-01-13T11:05:09.639Z,100086.38
2023-01-13T11:07:40.479Z,100089.78
2023-01-13T11:10:10.040Z,100095.13
2023-01-13T11:12:53.586Z,100095.13
2023-01-13T11:15:24.279Z,100103.06
2023-01-13T11:18:23.217Z,100105.81
2023-01-13T11:20:51.687Z,100105.47
2023-01-13T11:23:27.518Z,100088.16
2023-01-13T11:26:01.834Z,100101.00
2023-01-13T11:28:40.957Z,100108.75
2023-01-13T11:31:30.250Z,100115.69
2023-01-13T11:34:15.314Z,100114.25
2023-01-13T11:36:46.427Z,100119.31
2023-01-13T11:39:53.848Z,100128.59
2023-01-13T11:42:36.724Z,100134.09
2023-01-13T11:45:38.591Z,100145.25
2023-01-13T11:48:05.790Z,100137.47
2023-01-13T11:50:40.621Z,100130.53
2023-01-13T11:53:24.401Z,100135.97
2023-01-13T11:55:53.937Z,100141.44
2023-01-13T11:58:49.608Z,100147.25
2023-01-13T12:01:28.452Z,100149.50
2023-01-13T12:04:13.278Z,100148.34
2023-01-13T12:06:41.405Z,100149.31
2023-01-13T12:09:19.281Z,100153.34
2023-01-13T12:12:20.775Z,100149.63
2023-01-13T12:15:15.069Z,100154.63
2023-01-13T12:18:03.034Z,100149.59
2023-01-13T12:20:38.706Z,100146.81
2023-01-13T12:23:12.374Z,100153.63
2023-01-13T12:25:50.680Z,100150.03
2023-01-13T12:28:24.141Z,100138.72
2023-01-13T12:30:59.472Z,100155.31
2023-01-13T12:33:53.306Z,100161.41
2023-01-13T12:36:32.092Z,100155.44
2023-01-13T12:39:13.802Z,100167.59
2023-01-13T12:42:11.338Z,100164.81
2023-01-13T12:44:38.195Z,100166.69
2023-01-13T12:47:04.895Z,100175.78
2023-01-13T12:49:33.866Z,100171.88
2023-01-13T12:52:07.413Z,100176.28
2023-01-13T12:54:54.212Z,100176.28
2023-01-13T12:57:26.722Z,100187.41
2023-01-13T12:59:59.322Z,100172.88
2023-01-13T13:02:31.227Z,100177.84
2023-01-13T13:05:01.323Z,100181.06
2023-01-13T13:07:30.935Z,100183.66
2023-01-13T13:10:05.224Z,100199.38
2023-01-13T13:12:50.337Z,100201.34
2023-01-13T13:15:25.809Z,100204.06
2023-01-13T13:18:17.507Z,100200.22
2023-01-13T13:20:54.490Z,100212.72
2023-01-13T13:23:47.847Z,100212.88
2023-01-13T13:26:32.881Z,100217.91
2023-01-13T13:29:30.260Z,100215.63
2023-01-13T13:32:23.959Z,100219.66
2023-01-13T13:35:04.495Z,100213.53
2023-01-13T13:37:59.901Z,100216.78
2023-01-13T13:40:49.522Z,100225.03
2023-01-13T13:43:35.574Z,100223.41
2023-01-13T13:46:21.008Z,100235.38
2023-01-13T13:48:54.232Z,100244.72
2023-01-13T13:51:27.953Z,100242.16
2023-01-13T13:53:56.689Z,100236.97
2023-01-13T13:56:26.639Z,100253.31
2023-01-13T13:58:54.629Z,100251.34
2023-01-13T14:01:36.598Z,100265.28
2023-01-13T14:04:07.460Z,100264.63
2023-01-13T14:06:34.411Z,100270.16
2023-01-13T14:09:03.570Z,100272.75
2023-01-13T14:11:33.729Z,100261.91
2023-01-13T14:14:07.260Z,100280.03
2023-01-13T14:16:36.292Z,100282.47
2023-01-13T14:19:03.379Z,100285.38
2023-01-13T14:21:31.173Z,100299.13
2023-01-13T14:23:57.805Z,100302.50
2023-01-13T14:26:32.310Z,100305.25
2023-01-13T14:29:02.160Z,100304.44
2023-01-13T14:31:30.434Z,100311.44
2023-01-13T14:34:01.507Z,100308.66
2023-01-13T14:36:33.612Z,100316.44
2023-01-13T14:39:03.196Z,100313.03
2023-01-13T14:41:38.864Z,100316.25
2023-01-13T14:44:26.984Z,100323.19
2023-01-13T14:46:57.600Z,100330.81
2023-01-13T14:49:36.401Z,100333.22
2023-01-13T14:52:23.009Z,100343.75
2023-01-13T14:54:50.888Z,100346.78
2023-01-13T14:57:33.517Z,100340.81
2023-01-13T15:00:25.365Z,100345.19
2023-01-13T15:02:58.010Z,100346.78
2023-01-13T15:05:30.159Z,100350.00
2023-01-13T15:08:05.305Z,100351.81
2023-01-13T15:10:33.750Z,100362.19
2023-01-13T15:13:03.239Z,100362.97
2023-01-13T15:15:32.882Z,100372.97
2023-01-13T15:18:09.135Z,100383.97
2023-01-13T15:20:35.696Z,100384.97
2023-01-13T15:23:02.749Z,100390.28
2023-01-13T15:25:34.040Z,100401.94
2023-01-13T15:28:00.841Z,100396.59
2023-01-13T15:30:28.298Z,100411.13
2023-01-13T15:32:56.863Z,100417.09
2023-01-13T15:35:26.424Z,100418.25
2023-01-13T15:37:55.021Z,100422.63
2023-01-13T15:40:29.901Z,100422.47
2023-01-13T15:43:15.114Z,100423.28
2023-01-13T15:46:01.270Z,100429.25
2023-01-13T15:48:32.108Z,100435.41
2023-01-13T15:50:59.552Z,100432.81
2023-01-13T15:53:27.558Z,100436.84
2023-01-13T15:55:56.747Z,100444.63
2023-01-13T15:58:28.554Z,100442.19
2023-01-13T16:00:55.813Z,100440.59
2023-01-13T16:03:22.594Z,100455.28
2023-01-13T16:05:49.331Z,100462.88
2023-01-13T16:08:18.392Z,100469.88
2023-01-13T16:10:45.255Z,100467.41
2023-01-13T16:13:13.041Z,100477.78
2023-01-13T16:15:51.215Z,100493.31
2023-01-13T16:18:23.792Z,100471.97
2023-01-13T16:20:55.258Z,100479.91
2023-01-13T16:23:22.905Z,100480.38
2023-01-13T16:25:50.502Z,100478.28
2023-01-13T16:28:24.400Z,100500.31
2023-01-13T16:30:51.226Z,100506.28
2023-01-13T16:33:18.025Z,100519.38
2023-01-13T16:36:10.970Z,100511.28
2023-01-13T16:38:31.340Z,100503.22
2023-01-13T16:40:58.078Z,100519.56
2023-01-13T16:43:24.714Z,100518.72
2023-01-13T16:45:51.396Z,100518.09
2023-01-13T16:48:20.093Z,100521.94
2023-01-13T16:50:47.555Z,100525.53
2023-01-13T16:53:15.290Z,100534.72
2023-01-13T16:55:43.043Z,100540.88
2023-01-13T16:58:18.772Z,100549.28
2023-01-13T17:00:49.070Z,100550.25
2023-01-13T17:03:16.936Z,100549.28
2023-01-13T17:05:46.881Z,100557.88
2023-01-13T17:08:18.145Z,100569.50
2023-01-13T17:10:48.199Z,100578.09
2023-01-13T17:13:17.052Z,100579.03
2023-01-13T17:15:45.197Z,100581.47
2023-01-13T17:18:13.678Z,100584.03
2023-01-13T17:20:40.890Z,100585.84
2023-01-13T17:23:07.982Z,100590.84
2023-01-13T17:25:34.680Z,100596.03
2023-01-13T17:28:01.337Z,100606.38
2023-01-13T17:30:28.248Z,100599.25
2023-01-13T17:32:54.951Z,100614.63
2023-01-13T17:35:24.967Z,100616.41
2023-01-13T17:37:53.381Z,100625.28
2023-01-13T17:40:20.659Z,100626.13
2023-01-13T17:42:47.330Z,100624.31
2023-01-13T17:45:15.635Z,100630.31
2023-01-13T17:47:42.998Z,100637.41
2023-01-13T17:50:10.311Z,100637.06
2023-01-13T17:52:37.039Z,100634.34
2023-01-13T17:55:04.060Z,100644.03
2023-01-13T17:57:30.598Z,100629.66
2023-01-13T17:59:59.673Z,100630.91
2023-01-13T18:02:26.493Z,100639.50
2023-01-13T18:04:53.250Z,100647.88
2023-01-13T18:07:20.011Z,100650.78
2023-01-13T18:09:46.593Z,100664.16
2023-01-13T18:12:13.098Z,100653.81
2023-01-13T18:14:39.730Z,100660.91
2023-01-13T18:17:06.480Z,100668.00
2023-01-13T18:19:51.847Z,100668.47
2023-01-13T18:22:37.467Z,100667.16
2023-01-13T18:25:22.886Z,100660.19
2023-01-13T18:27:49.572Z,100672.59
2023-01-13T18:30:16.496Z,100673.88
2023-01-13T18:32:43.471Z,100686.81
2023-01-13T18:35:10.586Z,100683.28
2023-01-13T18:37:42.109Z,100687.09
2023-01-13T18:40:12.104Z,100688.09
2023-01-13T18:42:59.203Z,100711.59
2023-01-13T18:45:31.086Z,100707.56
2023-01-13T18:48:00.797Z,100719.16
2023-01-13T18:50:28.433Z,100720.56
2023-01-13T18:52:55.345Z,100719.09
2023-01-13T18:55:22.289Z,100722.47
2023-01-13T18:57:49.444Z,100722.47
2023-01-13T19:00:19.142Z,100726.00
2023-01-13T19:02:47.360Z,100731.81
2023-01-13T19:05:14.532Z,100731.53
2023-01-13T19:07:43.230Z,100730.25
2023-01-13T19:10:10.705Z,100740.91
2023-01-13T19:12:38.375Z,100742.50
2023-01-13T19:15:05.420Z,100750.41
2023-01-13T19:17:33.898Z,100764.56
2023-01-13T19:20:00.867Z,100762.16
2023-01-13T19:22:33.344Z,100771.53
2023-01-13T19:25:01.387Z,100776.53
2023-01-13T19:27:29.173Z,100780.06
2023-01-13T19:30:00.800Z,100800.41
2023-01-13T19:32:28.704Z,100807.56
2023-01-13T19:34:59.246Z,100816.53
2023-01-13T19:37:30.305Z,100804.50
2023-01-13T19:39:58.431Z,100806.75
2023-01-13T19:42:43.527Z,100809.34
2023-01-13T19:45:34.998Z,100818.31
2023-01-13T19:48:02.544Z,100810.72
2023-01-13T19:50:29.551Z,100818.75
2023-01-13T19:52:56.326Z,100822.00
2023-01-13T19:55:24.301Z,100826.88
2023-01-13T19:57:50.896Z,100807.53
2023-01-13T20:00:20.676Z,100850.31
2023-01-13T20:02:49.616Z,100850.31
2023-01-13T20:05:21.135Z,100852.25
2023-01-13T20:07:49.017Z,100846.69
2023-01-13T20:10:17.449Z,100850.69
2023-01-13T20:12:44.395Z,100843.63
2023-01-13T20:15:11.439Z,100864.41
2023-01-13T20:17:38.080Z,100860.88
2023-01-13T20:20:05.215Z,100858.13
2023-01-13T20:22:31.932Z,100857.19
2023-01-13T20:24:58.584Z,100856.53
2023-01-13T20:27:25.222Z,100852.03
2023-01-13T20:29:51.882Z,100863.00
2023-01-13T20:32:18.697Z,100865.31
2023-01-13T20:34:45.359Z,100864.34
2023-01-13T20:37:11.954Z,100862.41
2023-01-13T20:39:41.037Z,100870.31
2023-01-13T20:42:27.461Z,100867.47
2023-01-13T20:44:53.983Z,100873.28
2023-01-13T20:47:20.677Z,100871.66
2023-01-13T20:49:47.442Z,100874.91
2023-01-13T20:52:14.117Z,100882.66
2023-01-13T20:54:41.855Z,100887.97
2023-01-13T20:57:10.087Z,100908.91
2023-01-13T20:59:38.343Z,100940.41
2023-01-13T21:02:07.137Z,100899.09
2023-01-13T21:04:34.306Z,100883.06
2023-01-13T21:07:00.963Z,100892.06
2023-01-13T21:09:27.605Z,100907.06
2023-01-13T21:12:12.833Z,100902.00
2023-01-13T21:14:57.921Z,100908.81
2023-01-13T21:17:43.188Z,100901.75
2023-01-13T21:20:11.779Z,100906.66
2023-01-13T21:22:39.040Z,100919.72
2023-01-13T21:25:06.213Z,100921.75
2023-01-13T21:27:33.038Z,100927.50
2023-01-13T21:29:59.836Z,100931.34
2023-01-13T21:32:26.529Z,100934.03
2023-01-13T21:34:54.152Z,100943.53
2023-01-13T21:37:20.736Z,100929.69
2023-01-13T21:39:47.446Z,100937.28
2023-01-13T21:42:35.449Z,100941.25
2023-01-13T21:45:22.053Z,100935.09
2023-01-13T21:47:49.344Z,100928.34
2023-01-13T21:50:27.951Z,100934.59
2023-01-13T21:52:55.281Z,100931.63
2023-01-13T21:55:25.356Z,100939.13
2023-01-13T21:57:58.390Z,100948.88
2023-01-13T22:00:31.589Z,100952.72
2023-01-13T22:03:00.985Z,100961.03
2023-01-13T22:05:27.804Z,100964.53
2023-01-13T22:07:54.370Z,100961.28
2023-01-13T22:10:23.793Z,100961.28
2023-01-13T22:12:55.443Z,100960.31
2023-01-13T22:15:26.030Z,100962.91
2023-01-13T22:17:54.588Z,100956.97
2023-01-13T22:20:22.353Z,100957.91
2023-01-13T22:22:49.748Z,100969.97
2023-01-13T22:25:17.524Z,100971.88
2023-01-13T22:27:45.069Z,100974.59
2023-01-13T22:30:15.878Z,100975.53
2023-01-13T22:32:42.651Z,100981.78
2023-01-13T22:35:11.173Z,100981.00
2023-01-13T22:37:38.668Z,100983.59
2023-01-13T22:40:07.527Z,100989.41
2023-01-13T22:42:39.657Z,100997.16
2023-01-13T22:45:11.464Z,101000.66
2023-01-13T22:47:38.773Z,101012.63
2023-01-13T22:50:07.008Z,101016.28
2023-01-13T22:52:34.770Z,101013.84
2023-01-13T22:55:01.571Z,101019.97
2023-01-13T22:57:46.753Z,101012.22
2023-01-13T23:00:15.148Z,101019.00
2023-01-13T23:02:42.004Z,101015.75
2023-01-13T23:05:09.054Z,101018.31
2023-01-13T23:07:36.223Z,101013.97
2023-01-13T23:10:04.407Z,101014.13
2023-01-13T23:12:31.258Z,101009.78
2023-01-13T23:14:57.914Z,101021.19
2023-01-13T23:17:24.458Z,101015.47
2023-01-13T23:19:51.132Z,101024.31
2023-01-13T23:22:17.737Z,101021.72
2023-01-13T23:24:46.150Z,101014.97
2023-01-13T23:27:12.879Z,101031.38
2023-01-13T23:29:39.690Z,101024.31
2023-01-13T23:32:06.243Z,101031.09
2023-01-13T23:34:32.963Z,101026.47
2023-01-13T23:36:59.570Z,101035.69
2023-01-13T23:39:26.372Z,101027.84
2023-01-13T23:41:52.982Z,101034.47
2023-01-13T23:44:19.670Z,101033.38
2023-01-13T23:46:46.366Z,101036.53
2023-01-13T23:49:13.073Z,101049.94
2023-01-13T23:51:39.910Z,101045.44
2023-01-13T23:54:06.490Z,101040.03
2023-01-13T23:56:34.042Z,101041.38
2023-01-13T23:59:00.645Z,101034.34
